sensor_id;sensor_type;location;lat;lon;timestamp;temperature;humidity
74811;DHT22;63340;48.404;-4.506;2023-03-01T00:01:23;9.76;64.02
74811;DHT22;63340;48.404;-4.506;2023-03-01T00:03:49;9.77;63.63
74811;DHT22;63340;48.404;-4.506;2023-03-01T00:06:15;9.76;63.60
74811;DHT22;63340;48.404;-4.506;2023-03-01T00:08:41;9.78;63.43
74811;DHT22;63340;48.404;-4.506;2023-03-01T00:13:36;9.78;63.02
74811;DHT22;63340;48.404;-4.506;2023-03-01T00:16:03;9.76;63.24
74811;DHT22;63340;48.404;-4.506;2023-03-01T00:18:29;9.77;63.16
74811;DHT22;63340;48.404;-4.506;2023-03-01T00:20:56;9.78;62.98
74811;DHT22;63340;48.404;-4.506;2023-03-01T00:23:22;9.76;63.17
74811;DHT22;63340;48.404;-4.506;2023-03-01T00:25:48;9.76;62.94
74811;DHT22;63340;48.404;-4.506;2023-03-01T00:28:14;9.73;62.72
74811;DHT22;63340;48.404;-4.506;2023-03-01T00:30:40;9.71;62.66
74811;DHT22;63340;48.404;-4.506;2023-03-01T00:33:05;9.73;62.81
74811;DHT22;63340;48.404;-4.506;2023-03-01T00:35:34;9.74;62.94
74811;DHT22;63340;48.404;-4.506;2023-03-01T00:38:01;9.73;62.47
74811;DHT22;63340;48.404;-4.506;2023-03-01T00:40:27;9.69;62.71
74811;DHT22;63340;48.404;-4.506;2023-03-01T00:42:53;9.69;62.66
74811;DHT22;63340;48.404;-4.506;2023-03-01T00:45:19;9.64;62.32
74811;DHT22;63340;48.404;-4.506;2023-03-01T00:47:45;9.61;62.89
74811;DHT22;63340;48.404;-4.506;2023-03-01T00:50:14;9.53;62.62
74811;DHT22;63340;48.404;-4.506;2023-03-01T00:52:39;9.50;62.63
74811;DHT22;63340;48.404;-4.506;2023-03-01T00:55:06;9.44;62.84
74811;DHT22;63340;48.404;-4.506;2023-03-01T00:57:31;9.46;62.44
74811;DHT22;63340;48.404;-4.506;2023-03-01T00:59:57;9.49;62.33
74811;DHT22;63340;48.404;-4.506;2023-03-01T01:02:23;9.44;62.54
74811;DHT22;63340;48.404;-4.506;2023-03-01T01:04:49;9.38;62.40
74811;DHT22;63340;48.404;-4.506;2023-03-01T01:07:15;9.35;62.46
74811;DHT22;63340;48.404;-4.506;2023-03-01T01:09:41;9.36;62.39
74811;DHT22;63340;48.404;-4.506;2023-03-01T01:12:06;9.33;62.44
74811;DHT22;63340;48.404;-4.506;2023-03-01T01:14:32;9.30;62.49
74811;DHT22;63340;48.404;-4.506;2023-03-01T01:16:58;9.23;62.53
74811;DHT22;63340;48.404;-4.506;2023-03-01T01:19:24;9.25;62.50
74811;DHT22;63340;48.404;-4.506;2023-03-01T01:21:50;9.26;62.49
74811;DHT22;63340;48.404;-4.506;2023-03-01T01:24:16;9.28;62.19
74811;DHT22;63340;48.404;-4.506;2023-03-01T01:26:42;9.30;62.19
74811;DHT22;63340;48.404;-4.506;2023-03-01T01:29:08;9.30;62.11
74811;DHT22;63340;48.404;-4.506;2023-03-01T01:31:35;9.36;61.94
74811;DHT22;63340;48.404;-4.506;2023-03-01T01:34:02;9.25;62.00
74811;DHT22;63340;48.404;-4.506;2023-03-01T01:36:28;9.23;61.80
74811;DHT22;63340;48.404;-4.506;2023-03-01T01:38:53;9.15;61.09
74811;DHT22;63340;48.404;-4.506;2023-03-01T01:41:21;9.12;61.12
74811;DHT22;63340;48.404;-4.506;2023-03-01T01:43:49;9.08;60.04
74811;DHT22;63340;48.404;-4.506;2023-03-01T01:46:30;8.98;60.24
74811;DHT22;63340;48.404;-4.506;2023-03-01T01:49:10;8.92;60.32
74811;DHT22;63340;48.404;-4.506;2023-03-01T01:51:42;8.89;60.05
74811;DHT22;63340;48.404;-4.506;2023-03-01T01:54:32;8.92;59.29
74811;DHT22;63340;48.404;-4.506;2023-03-01T01:57:03;8.87;58.70
74811;DHT22;63340;48.404;-4.506;2023-03-01T01:59:33;8.84;57.06
74811;DHT22;63340;48.404;-4.506;2023-03-01T02:02:03;8.81;57.31
74811;DHT22;63340;48.404;-4.506;2023-03-01T02:04:30;8.77;56.90
74811;DHT22;63340;48.404;-4.506;2023-03-01T02:07:14;8.74;57.14
74811;DHT22;63340;48.404;-4.506;2023-03-01T02:09:43;8.63;56.60
74811;DHT22;63340;48.404;-4.506;2023-03-01T02:12:10;8.56;57.21
74811;DHT22;63340;48.404;-4.506;2023-03-01T02:14:36;8.52;57.46
74811;DHT22;63340;48.404;-4.506;2023-03-01T02:17:01;8.52;57.53
74811;DHT22;63340;48.404;-4.506;2023-03-01T02:22:27;8.53;57.72
74811;DHT22;63340;48.404;-4.506;2023-03-01T02:24:57;8.46;57.01
74811;DHT22;63340;48.404;-4.506;2023-03-01T02:27:31;8.40;57.48
74811;DHT22;63340;48.404;-4.506;2023-03-01T02:29:58;8.23;56.43
74811;DHT22;63340;48.404;-4.506;2023-03-01T02:32:24;8.16;57.10
74811;DHT22;63340;48.404;-4.506;2023-03-01T02:34:52;8.13;57.39
74811;DHT22;63340;48.404;-4.506;2023-03-01T02:37:19;8.12;57.52
74811;DHT22;63340;48.404;-4.506;2023-03-01T02:39:55;8.16;57.48
74811;DHT22;63340;48.404;-4.506;2023-03-01T02:42:28;8.19;57.04
74811;DHT22;63340;48.404;-4.506;2023-03-01T02:44:55;8.16;57.03
74811;DHT22;63340;48.404;-4.506;2023-03-01T02:47:21;8.19;56.43
74811;DHT22;63340;48.404;-4.506;2023-03-01T02:49:46;8.17;56.32
74811;DHT22;63340;48.404;-4.506;2023-03-01T02:52:37;8.12;56.84
74811;DHT22;63340;48.404;-4.506;2023-03-01T02:55:15;8.13;56.74
74811;DHT22;63340;48.404;-4.506;2023-03-01T02:57:44;8.13;56.54
74811;DHT22;63340;48.404;-4.506;2023-03-01T03:00:17;8.10;56.52
74811;DHT22;63340;48.404;-4.506;2023-03-01T03:02:50;8.16;56.34
74811;DHT22;63340;48.404;-4.506;2023-03-01T03:05:20;8.17;56.48
74811;DHT22;63340;48.404;-4.506;2023-03-01T03:07:47;8.17;56.55
74811;DHT22;63340;48.404;-4.506;2023-03-01T03:10:22;8.19;56.44
74811;DHT22;63340;48.404;-4.506;2023-03-01T03:12:51;8.16;56.40
74811;DHT22;63340;48.404;-4.506;2023-03-01T03:15:17;8.15;56.51
74811;DHT22;63340;48.404;-4.506;2023-03-01T03:17:43;8.13;56.27
74811;DHT22;63340;48.404;-4.506;2023-03-01T03:20:11;8.10;56.48
74811;DHT22;63340;48.404;-4.506;2023-03-01T03:22:38;8.12;56.27
74811;DHT22;63340;48.404;-4.506;2023-03-01T03:25:06;8.13;56.44
74811;DHT22;63340;48.404;-4.506;2023-03-01T03:27:43;8.15;56.63
74811;DHT22;63340;48.404;-4.506;2023-03-01T03:30:13;8.09;56.57
74811;DHT22;63340;48.404;-4.506;2023-03-01T03:32:41;8.07;56.84
74811;DHT22;63340;48.404;-4.506;2023-03-01T03:35:09;8.09;56.64
74811;DHT22;63340;48.404;-4.506;2023-03-01T03:37:39;8.10;56.68
74811;DHT22;63340;48.404;-4.506;2023-03-01T03:40:24;8.07;56.83
74811;DHT22;63340;48.404;-4.506;2023-03-01T03:42:53;8.06;56.94
74811;DHT22;63340;48.404;-4.506;2023-03-01T03:45:19;8.05;56.90
74811;DHT22;63340;48.404;-4.506;2023-03-01T03:47:45;8.03;56.83
74811;DHT22;63340;48.404;-4.506;2023-03-01T03:50:15;8.03;56.50
74811;DHT22;63340;48.404;-4.506;2023-03-01T03:52:41;8.03;56.66
74811;DHT22;63340;48.404;-4.506;2023-03-01T03:55:10;7.99;56.51
74811;DHT22;63340;48.404;-4.506;2023-03-01T03:57:37;7.99;56.21
74811;DHT22;63340;48.404;-4.506;2023-03-01T04:00:05;7.96;55.81
74811;DHT22;63340;48.404;-4.506;2023-03-01T04:02:31;7.96;55.89
74811;DHT22;63340;48.404;-4.506;2023-03-01T04:04:56;7.94;55.74
74811;DHT22;63340;48.404;-4.506;2023-03-01T04:07:22;7.91;55.97
74811;DHT22;63340;48.404;-4.506;2023-03-01T04:09:47;7.85;55.54
74811;DHT22;63340;48.404;-4.506;2023-03-01T04:12:13;7.79;55.58
74811;DHT22;63340;48.404;-4.506;2023-03-01T04:14:38;7.74;55.66
74811;DHT22;63340;48.404;-4.506;2023-03-01T04:17:04;7.73;55.76
74811;DHT22;63340;48.404;-4.506;2023-03-01T04:19:31;7.73;55.35
74811;DHT22;63340;48.404;-4.506;2023-03-01T04:22:04;7.70;55.23
74811;DHT22;63340;48.404;-4.506;2023-03-01T04:24:35;7.70;55.01
74811;DHT22;63340;48.404;-4.506;2023-03-01T04:27:01;7.67;55.14
74811;DHT22;63340;48.404;-4.506;2023-03-01T04:29:26;7.64;55.43
74811;DHT22;63340;48.404;-4.506;2023-03-01T04:31:51;7.60;54.43
74811;DHT22;63340;48.404;-4.506;2023-03-01T04:34:18;7.56;55.16
74811;DHT22;63340;48.404;-4.506;2023-03-01T04:36:43;7.54;55.17
74811;DHT22;63340;48.404;-4.506;2023-03-01T04:39:09;7.51;55.14
74811;DHT22;63340;48.404;-4.506;2023-03-01T04:41:38;7.50;54.76
74811;DHT22;63340;48.404;-4.506;2023-03-01T04:44:05;7.50;54.99
74811;DHT22;63340;48.404;-4.506;2023-03-01T04:46:31;7.53;54.70
74811;DHT22;63340;48.404;-4.506;2023-03-01T04:48:56;7.48;54.79
74811;DHT22;63340;48.404;-4.506;2023-03-01T04:51:22;7.48;54.36
74811;DHT22;63340;48.404;-4.506;2023-03-01T04:53:48;7.47;54.44
74811;DHT22;63340;48.404;-4.506;2023-03-01T04:56:14;7.50;54.25
74811;DHT22;63340;48.404;-4.506;2023-03-01T04:58:40;7.51;54.37
74811;DHT22;63340;48.404;-4.506;2023-03-01T05:01:12;7.54;54.36
74811;DHT22;63340;48.404;-4.506;2023-03-01T05:03:46;7.57;54.27
74811;DHT22;63340;48.404;-4.506;2023-03-01T05:06:12;7.54;54.31
74811;DHT22;63340;48.404;-4.506;2023-03-01T05:08:39;7.56;53.85
74811;DHT22;63340;48.404;-4.506;2023-03-01T05:11:05;7.56;54.10
74811;DHT22;63340;48.404;-4.506;2023-03-01T05:13:35;7.51;54.13
74811;DHT22;63340;48.404;-4.506;2023-03-01T05:16:02;7.51;53.92
74811;DHT22;63340;48.404;-4.506;2023-03-01T05:18:30;7.54;53.82
74811;DHT22;63340;48.404;-4.506;2023-03-01T05:21:03;7.51;53.88
74811;DHT22;63340;48.404;-4.506;2023-03-01T05:23:32;7.51;53.82
74811;DHT22;63340;48.404;-4.506;2023-03-01T05:26:02;7.51;53.89
74811;DHT22;63340;48.404;-4.506;2023-03-01T05:28:29;7.50;53.93
74811;DHT22;63340;48.404;-4.506;2023-03-01T05:30:55;7.51;53.80
74811;DHT22;63340;48.404;-4.506;2023-03-01T05:33:20;7.48;54.01
74811;DHT22;63340;48.404;-4.506;2023-03-01T05:35:48;7.51;53.68
74811;DHT22;63340;48.404;-4.506;2023-03-01T05:38:14;7.51;53.86
74811;DHT22;63340;48.404;-4.506;2023-03-01T05:40:41;7.48;53.73
74811;DHT22;63340;48.404;-4.506;2023-03-01T05:43:07;7.50;53.35
74811;DHT22;63340;48.404;-4.506;2023-03-01T05:45:32;7.46;53.37
74811;DHT22;63340;48.404;-4.506;2023-03-01T05:47:58;7.44;53.64
74811;DHT22;63340;48.404;-4.506;2023-03-01T05:50:26;7.42;53.70
74811;DHT22;63340;48.404;-4.506;2023-03-01T05:55:22;7.38;53.42
74811;DHT22;63340;48.404;-4.506;2023-03-01T05:57:48;7.37;53.81
74811;DHT22;63340;48.404;-4.506;2023-03-01T06:00:16;7.36;53.67
74811;DHT22;63340;48.404;-4.506;2023-03-01T06:02:43;7.33;54.40
74811;DHT22;63340;48.404;-4.506;2023-03-01T06:05:10;7.27;54.07
74811;DHT22;63340;48.404;-4.506;2023-03-01T06:07:36;7.26;54.60
74811;DHT22;63340;48.404;-4.506;2023-03-01T06:10:03;7.24;53.50
74811;DHT22;63340;48.404;-4.506;2023-03-01T06:12:31;7.19;53.46
74811;DHT22;63340;48.404;-4.506;2023-03-01T06:14:57;7.15;54.12
74811;DHT22;63340;48.404;-4.506;2023-03-01T06:17:22;7.13;54.26
74811;DHT22;63340;48.404;-4.506;2023-03-01T06:19:47;7.12;54.15
74811;DHT22;63340;48.404;-4.506;2023-03-01T06:22:13;7.12;53.92
74811;DHT22;63340;48.404;-4.506;2023-03-01T06:24:39;7.13;54.97
74811;DHT22;63340;48.404;-4.506;2023-03-01T06:27:04;7.09;54.93
74811;DHT22;63340;48.404;-4.506;2023-03-01T06:29:30;7.08;54.84
74811;DHT22;63340;48.404;-4.506;2023-03-01T06:31:55;7.05;54.91
74811;DHT22;63340;48.404;-4.506;2023-03-01T06:34:20;7.06;54.77
74811;DHT22;63340;48.404;-4.506;2023-03-01T06:36:47;7.08;55.29
74811;DHT22;63340;48.404;-4.506;2023-03-01T06:39:12;7.08;54.59
74811;DHT22;63340;48.404;-4.506;2023-03-01T06:41:37;7.05;54.40
74811;DHT22;63340;48.404;-4.506;2023-03-01T06:44:03;7.03;54.93
74811;DHT22;63340;48.404;-4.506;2023-03-01T06:46:29;7.02;54.35
74811;DHT22;63340;48.404;-4.506;2023-03-01T06:48:54;7.02;54.51
74811;DHT22;63340;48.404;-4.506;2023-03-01T06:51:20;7.00;54.60
74811;DHT22;63340;48.404;-4.506;2023-03-01T06:53:46;6.99;54.20
74811;DHT22;63340;48.404;-4.506;2023-03-01T06:56:11;6.92;54.08
74811;DHT22;63340;48.404;-4.506;2023-03-01T06:58:37;6.95;54.20
74811;DHT22;63340;48.404;-4.506;2023-03-01T07:01:06;6.88;53.88
74811;DHT22;63340;48.404;-4.506;2023-03-01T07:03:31;6.84;54.75
74811;DHT22;63340;48.404;-4.506;2023-03-01T07:05:57;6.89;54.41
74811;DHT22;63340;48.404;-4.506;2023-03-01T07:08:22;6.92;53.80
74811;DHT22;63340;48.404;-4.506;2023-03-01T07:10:47;6.88;54.29
74811;DHT22;63340;48.404;-4.506;2023-03-01T07:13:14;6.85;54.17
74811;DHT22;63340;48.404;-4.506;2023-03-01T07:15:40;6.91;54.22
74811;DHT22;63340;48.404;-4.506;2023-03-01T07:18:05;6.92;53.55
74811;DHT22;63340;48.404;-4.506;2023-03-01T07:20:31;6.93;53.95
74811;DHT22;63340;48.404;-4.506;2023-03-01T07:22:56;6.93;54.21
74811;DHT22;63340;48.404;-4.506;2023-03-01T07:25:24;6.92;54.14
74811;DHT22;63340;48.404;-4.506;2023-03-01T07:27:50;6.93;54.67
74811;DHT22;63340;48.404;-4.506;2023-03-01T07:30:16;6.93;54.39
74811;DHT22;63340;48.404;-4.506;2023-03-01T07:32:42;6.96;54.11
74811;DHT22;63340;48.404;-4.506;2023-03-01T07:35:07;6.95;54.30
74811;DHT22;63340;48.404;-4.506;2023-03-01T07:37:33;6.98;54.56
74811;DHT22;63340;48.404;-4.506;2023-03-01T07:39:58;7.02;54.11
74811;DHT22;63340;48.404;-4.506;2023-03-01T07:42:23;7.09;54.24
74811;DHT22;63340;48.404;-4.506;2023-03-01T07:44:49;7.15;53.93
74811;DHT22;63340;48.404;-4.506;2023-03-01T07:47:14;7.17;53.94
74811;DHT22;63340;48.404;-4.506;2023-03-01T07:49:40;7.17;54.04
74811;DHT22;63340;48.404;-4.506;2023-03-01T07:52:05;7.23;53.61
74811;DHT22;63340;48.404;-4.506;2023-03-01T07:54:30;7.22;53.97
74811;DHT22;63340;48.404;-4.506;2023-03-01T07:56:56;7.22;53.72
74811;DHT22;63340;48.404;-4.506;2023-03-01T07:59:22;7.23;54.03
74811;DHT22;63340;48.404;-4.506;2023-03-01T08:01:54;7.24;54.03
74811;DHT22;63340;48.404;-4.506;2023-03-01T08:04:19;7.30;54.53
74811;DHT22;63340;48.404;-4.506;2023-03-01T08:06:45;7.42;53.98
74811;DHT22;63340;48.404;-4.506;2023-03-01T08:09:10;7.50;53.26
74811;DHT22;63340;48.404;-4.506;2023-03-01T08:11:35;7.57;53.46
74811;DHT22;63340;48.404;-4.506;2023-03-01T08:14:01;7.63;52.99
74811;DHT22;63340;48.404;-4.506;2023-03-01T08:16:26;7.68;52.49
74811;DHT22;63340;48.404;-4.506;2023-03-01T08:18:52;7.70;53.41
74811;DHT22;63340;48.404;-4.506;2023-03-01T08:21:18;7.82;53.72
74811;DHT22;63340;48.404;-4.506;2023-03-01T08:23:44;7.91;53.30
74811;DHT22;63340;48.404;-4.506;2023-03-01T08:26:18;7.95;53.78
74811;DHT22;63340;48.404;-4.506;2023-03-01T08:28:44;8.01;53.40
74811;DHT22;63340;48.404;-4.506;2023-03-01T08:31:18;8.03;53.35
74811;DHT22;63340;48.404;-4.506;2023-03-01T08:33:46;8.16;54.02
74811;DHT22;63340;48.404;-4.506;2023-03-01T08:36:16;8.33;51.43
74811;DHT22;63340;48.404;-4.506;2023-03-01T08:38:41;8.53;51.69
74811;DHT22;63340;48.404;-4.506;2023-03-01T08:41:07;8.71;51.87
74811;DHT22;63340;48.404;-4.506;2023-03-01T08:43:32;8.88;51.23
74811;DHT22;63340;48.404;-4.506;2023-03-01T08:45:58;9.04;50.27
74811;DHT22;63340;48.404;-4.506;2023-03-01T08:48:23;9.08;50.36
74811;DHT22;63340;48.404;-4.506;2023-03-01T08:50:49;9.19;49.91
74811;DHT22;63340;48.404;-4.506;2023-03-01T08:53:14;9.29;49.84
74811;DHT22;63340;48.404;-4.506;2023-03-01T08:55:40;9.38;49.37
74811;DHT22;63340;48.404;-4.506;2023-03-01T08:58:05;9.43;49.88
74811;DHT22;63340;48.404;-4.506;2023-03-01T09:00:30;9.50;49.24
74811;DHT22;63340;48.404;-4.506;2023-03-01T09:03:00;9.56;48.47
74811;DHT22;63340;48.404;-4.506;2023-03-01T09:05:25;9.59;49.27
74811;DHT22;63340;48.404;-4.506;2023-03-01T09:07:51;9.63;49.66
74811;DHT22;63340;48.404;-4.506;2023-03-01T09:10:16;9.63;49.20
74811;DHT22;63340;48.404;-4.506;2023-03-01T09:12:41;9.67;50.08
74811;DHT22;63340;48.404;-4.506;2023-03-01T09:15:07;9.70;50.45
74811;DHT22;63340;48.404;-4.506;2023-03-01T09:17:33;9.71;49.60
74811;DHT22;63340;48.404;-4.506;2023-03-01T09:19:58;9.76;50.41
74811;DHT22;63340;48.404;-4.506;2023-03-01T09:22:25;9.77;50.22
74811;DHT22;63340;48.404;-4.506;2023-03-01T09:24:50;9.74;50.36
74811;DHT22;63340;48.404;-4.506;2023-03-01T09:27:15;9.71;49.77
74811;DHT22;63340;48.404;-4.506;2023-03-01T09:29:44;9.76;50.08
74811;DHT22;63340;48.404;-4.506;2023-03-01T09:32:09;9.84;50.46
74811;DHT22;63340;48.404;-4.506;2023-03-01T09:34:35;9.88;49.45
74811;DHT22;63340;48.404;-4.506;2023-03-01T09:37:20;9.87;49.17
74811;DHT22;63340;48.404;-4.506;2023-03-01T09:39:46;9.87;50.54
74811;DHT22;63340;48.404;-4.506;2023-03-01T09:42:12;9.91;49.38
74811;DHT22;63340;48.404;-4.506;2023-03-01T09:45:04;9.90;49.58
74811;DHT22;63340;48.404;-4.506;2023-03-01T09:47:33;9.95;50.04
74811;DHT22;63340;48.404;-4.506;2023-03-01T09:50:12;9.99;49.11
74811;DHT22;63340;48.404;-4.506;2023-03-01T09:52:45;10.07;50.90
74811;DHT22;63340;48.404;-4.506;2023-03-01T09:55:20;10.08;48.73
74811;DHT22;63340;48.404;-4.506;2023-03-01T09:57:48;10.07;50.30
74811;DHT22;63340;48.404;-4.506;2023-03-01T10:00:30;10.12;50.81
74811;DHT22;63340;48.404;-4.506;2023-03-01T10:03:10;10.17;49.94
74811;DHT22;63340;48.404;-4.506;2023-03-01T10:05:52;10.15;51.07
74811;DHT22;63340;48.404;-4.506;2023-03-01T10:08:32;10.21;50.72
74811;DHT22;63340;48.404;-4.506;2023-03-01T10:11:02;10.25;51.05
74811;DHT22;63340;48.404;-4.506;2023-03-01T10:16:11;10.32;50.27
74811;DHT22;63340;48.404;-4.506;2023-03-01T10:18:39;10.35;50.76
74811;DHT22;63340;48.404;-4.506;2023-03-01T10:21:16;10.38;51.34
74811;DHT22;63340;48.404;-4.506;2023-03-01T10:23:42;10.39;49.80
74811;DHT22;63340;48.404;-4.506;2023-03-01T10:31:44;10.45;49.83
74811;DHT22;63340;48.404;-4.506;2023-03-01T10:34:21;10.46;50.75
74811;DHT22;63340;48.404;-4.506;2023-03-01T10:36:50;10.59;51.66
74811;DHT22;63340;48.404;-4.506;2023-03-01T10:39:19;10.65;51.58
74811;DHT22;63340;48.404;-4.506;2023-03-01T10:44:45;10.74;51.51
74811;DHT22;63340;48.404;-4.506;2023-03-01T10:47:31;10.83;51.15
74811;DHT22;63340;48.404;-4.506;2023-03-01T10:50:03;10.87;49.89
74811;DHT22;63340;48.404;-4.506;2023-03-01T10:52:32;10.85;50.54
74811;DHT22;63340;48.404;-4.506;2023-03-01T10:55:23;10.80;49.75
74811;DHT22;63340;48.404;-4.506;2023-03-01T10:57:49;10.72;50.05
74811;DHT22;63340;48.404;-4.506;2023-03-01T11:00:17;10.67;51.09
74811;DHT22;63340;48.404;-4.506;2023-03-01T11:03:10;10.70;50.62
74811;DHT22;63340;48.404;-4.506;2023-03-01T11:05:37;10.74;50.73
74811;DHT22;63340;48.404;-4.506;2023-03-01T11:08:14;10.84;51.93
74811;DHT22;63340;48.404;-4.506;2023-03-01T11:10:40;10.96;52.09
74811;DHT22;63340;48.404;-4.506;2023-03-01T11:13:19;11.07;51.95
74811;DHT22;63340;48.404;-4.506;2023-03-01T11:16:06;11.10;51.61
74811;DHT22;63340;48.404;-4.506;2023-03-01T11:18:32;11.15;51.30
74811;DHT22;63340;48.404;-4.506;2023-03-01T11:20:59;11.20;51.41
74811;DHT22;63340;48.404;-4.506;2023-03-01T11:23:28;11.18;51.08
74811;DHT22;63340;48.404;-4.506;2023-03-01T11:26:02;11.27;51.53
74811;DHT22;63340;48.404;-4.506;2023-03-01T11:28:30;11.18;50.44
74811;DHT22;63340;48.404;-4.506;2023-03-01T11:33:37;11.25;51.20
74811;DHT22;63340;48.404;-4.506;2023-03-01T11:39:03;11.48;50.70
74811;DHT22;63340;48.404;-4.506;2023-03-01T11:41:32;11.54;50.29
74811;DHT22;63340;48.404;-4.506;2023-03-01T11:44:01;11.51;50.10
74811;DHT22;63340;48.404;-4.506;2023-03-01T11:51:38;11.61;48.92
74811;DHT22;63340;48.404;-4.506;2023-03-01T11:54:17;11.59;50.24
74811;DHT22;63340;48.404;-4.506;2023-03-01T11:57:19;11.68;50.55
74811;DHT22;63340;48.404;-4.506;2023-03-01T12:05:20;11.76;49.75
74811;DHT22;63340;48.404;-4.506;2023-03-01T12:08:29;11.72;50.48
74811;DHT22;63340;48.404;-4.506;2023-03-01T12:20:02;11.61;49.22
74811;DHT22;63340;48.404;-4.506;2023-03-01T12:23:20;11.55;49.25
74811;DHT22;63340;48.404;-4.506;2023-03-01T12:37:29;11.61;48.49
74811;DHT22;63340;48.404;-4.506;2023-03-01T12:43:11;11.65;49.66
74811;DHT22;63340;48.404;-4.506;2023-03-01T12:50:45;11.63;48.78
74811;DHT22;63340;48.404;-4.506;2023-03-01T12:53:28;11.63;48.83
74811;DHT22;63340;48.404;-4.506;2023-03-01T12:55:59;11.66;48.84
74811;DHT22;63340;48.404;-4.506;2023-03-01T13:01:42;11.78;49.18
74811;DHT22;63340;48.404;-4.506;2023-03-01T13:07:16;11.70;48.14
74811;DHT22;63340;48.404;-4.506;2023-03-01T13:10:21;11.65;48.06
74811;DHT22;63340;48.404;-4.506;2023-03-01T13:17:48;11.51;49.35
74811;DHT22;63340;48.404;-4.506;2023-03-01T13:20:19;11.57;49.96
74811;DHT22;63340;48.404;-4.506;2023-03-01T13:22:46;11.61;50.31
74811;DHT22;63340;48.404;-4.506;2023-03-01T13:25:21;11.68;49.14
74811;DHT22;63340;48.404;-4.506;2023-03-01T13:27:47;11.70;49.89
74811;DHT22;63340;48.404;-4.506;2023-03-01T13:35:53;11.79;49.22
74811;DHT22;63340;48.404;-4.506;2023-03-01T13:44:25;11.82;50.24
74811;DHT22;63340;48.404;-4.506;2023-03-01T13:46:53;11.86;49.75
74811;DHT22;63340;48.404;-4.506;2023-03-01T13:49:30;11.75;49.80
74811;DHT22;63340;48.404;-4.506;2023-03-01T13:51:58;11.82;50.26
74811;DHT22;63340;48.404;-4.506;2023-03-01T13:54:28;11.72;49.52
74811;DHT22;63340;48.404;-4.506;2023-03-01T13:56:55;11.65;50.20
74811;DHT22;63340;48.404;-4.506;2023-03-01T13:59:22;11.61;50.07
74811;DHT22;63340;48.404;-4.506;2023-03-01T14:01:53;11.55;50.41
74811;DHT22;63340;48.404;-4.506;2023-03-01T14:04:29;11.48;50.83
74811;DHT22;63340;48.404;-4.506;2023-03-01T14:09:41;11.39;50.54
74811;DHT22;63340;48.404;-4.506;2023-03-01T14:15:04;11.41;51.52
74811;DHT22;63340;48.404;-4.506;2023-03-01T14:17:49;11.41;51.67
74811;DHT22;63340;48.404;-4.506;2023-03-01T14:20:28;11.45;51.85
74811;DHT22;63340;48.404;-4.506;2023-03-01T14:22:56;11.55;51.77
74811;DHT22;63340;48.404;-4.506;2023-03-01T14:25:36;11.54;51.99
74811;DHT22;63340;48.404;-4.506;2023-03-01T14:28:21;11.58;51.70
74811;DHT22;63340;48.404;-4.506;2023-03-01T14:31:00;11.54;51.87
74811;DHT22;63340;48.404;-4.506;2023-03-01T14:33:33;11.48;51.73
74811;DHT22;63340;48.404;-4.506;2023-03-01T14:36:05;11.43;52.20
74811;DHT22;63340;48.404;-4.506;2023-03-01T14:38:42;11.41;51.95
74811;DHT22;63340;48.404;-4.506;2023-03-01T14:41:21;11.36;52.07
74811;DHT22;63340;48.404;-4.506;2023-03-01T14:44:12;11.31;52.40
74811;DHT22;63340;48.404;-4.506;2023-03-01T14:46:40;11.28;52.29
74811;DHT22;63340;48.404;-4.506;2023-03-01T14:49:17;11.32;51.91
74811;DHT22;63340;48.404;-4.506;2023-03-01T14:52:01;11.30;52.29
74811;DHT22;63340;48.404;-4.506;2023-03-01T14:54:28;11.30;52.05
74811;DHT22;63340;48.404;-4.506;2023-03-01T14:56:59;11.27;52.60
74811;DHT22;63340;48.404;-4.506;2023-03-01T14:59:25;11.34;52.68
74811;DHT22;63340;48.404;-4.506;2023-03-01T15:01:53;11.35;52.16
74811;DHT22;63340;48.404;-4.506;2023-03-01T15:04:22;11.36;52.33
74811;DHT22;63340;48.404;-4.506;2023-03-01T15:06:51;11.32;51.91
74811;DHT22;63340;48.404;-4.506;2023-03-01T15:09:18;11.28;52.18
74811;DHT22;63340;48.404;-4.506;2023-03-01T15:11:44;11.22;51.37
74811;DHT22;63340;48.404;-4.506;2023-03-01T15:14:39;11.20;51.36
74811;DHT22;63340;48.404;-4.506;2023-03-01T15:17:21;11.15;50.73
74811;DHT22;63340;48.404;-4.506;2023-03-01T15:19:48;11.17;50.89
74811;DHT22;63340;48.404;-4.506;2023-03-01T15:22:15;11.13;50.69
74811;DHT22;63340;48.404;-4.506;2023-03-01T15:24:46;11.18;50.75
74811;DHT22;63340;48.404;-4.506;2023-03-01T15:27:16;11.20;50.46
74811;DHT22;63340;48.404;-4.506;2023-03-01T15:29:48;11.17;50.54
74811;DHT22;63340;48.404;-4.506;2023-03-01T15:34:54;11.21;49.29
74811;DHT22;63340;48.404;-4.506;2023-03-01T15:37:40;11.11;49.35
74811;DHT22;63340;48.404;-4.506;2023-03-01T15:40:29;11.24;50.15
74811;DHT22;63340;48.404;-4.506;2023-03-01T15:42:59;11.25;50.10
74811;DHT22;63340;48.404;-4.506;2023-03-01T15:45:26;11.28;49.70
74811;DHT22;63340;48.404;-4.506;2023-03-01T15:47:58;11.30;50.35
74811;DHT22;63340;48.404;-4.506;2023-03-01T15:50:35;11.32;50.44
74811;DHT22;63340;48.404;-4.506;2023-03-01T15:53:05;11.22;50.82
74811;DHT22;63340;48.404;-4.506;2023-03-01T15:55:35;11.20;51.27
74811;DHT22;63340;48.404;-4.506;2023-03-01T16:01:01;11.08;51.99
74811;DHT22;63340;48.404;-4.506;2023-03-01T16:03:27;11.04;52.35
74811;DHT22;63340;48.404;-4.506;2023-03-01T16:05:53;10.97;52.27
74811;DHT22;63340;48.404;-4.506;2023-03-01T16:08:18;10.85;52.29
74811;DHT22;63340;48.404;-4.506;2023-03-01T16:10:45;10.90;52.45
74811;DHT22;63340;48.404;-4.506;2023-03-01T16:13:14;10.94;52.79
74811;DHT22;63340;48.404;-4.506;2023-03-01T16:15:46;10.90;52.38
74811;DHT22;63340;48.404;-4.506;2023-03-01T16:18:12;10.97;52.62
74811;DHT22;63340;48.404;-4.506;2023-03-01T16:20:37;11.00;52.41
74811;DHT22;63340;48.404;-4.506;2023-03-01T16:23:06;11.00;51.73
74811;DHT22;63340;48.404;-4.506;2023-03-01T16:25:33;10.96;51.86
74811;DHT22;63340;48.404;-4.506;2023-03-01T16:27:59;10.97;51.60
74811;DHT22;63340;48.404;-4.506;2023-03-01T16:30:29;10.93;51.44
74811;DHT22;63340;48.404;-4.506;2023-03-01T16:32:54;10.96;51.76
74811;DHT22;63340;48.404;-4.506;2023-03-01T16:35:21;11.00;51.47
74811;DHT22;63340;48.404;-4.506;2023-03-01T16:37:46;10.96;50.98
74811;DHT22;63340;48.404;-4.506;2023-03-01T16:40:21;10.89;51.34
74811;DHT22;63340;48.404;-4.506;2023-03-01T16:42:50;10.85;51.40
74811;DHT22;63340;48.404;-4.506;2023-03-01T16:45:16;10.87;51.13
74811;DHT22;63340;48.404;-4.506;2023-03-01T16:47:42;10.92;51.08
74811;DHT22;63340;48.404;-4.506;2023-03-01T16:50:08;10.97;51.30
74811;DHT22;63340;48.404;-4.506;2023-03-01T16:52:34;10.99;51.67
74811;DHT22;63340;48.404;-4.506;2023-03-01T16:54:59;11.00;51.13
74811;DHT22;63340;48.404;-4.506;2023-03-01T16:57:25;10.97;51.17
74811;DHT22;63340;48.404;-4.506;2023-03-01T16:59:53;10.94;50.84
74811;DHT22;63340;48.404;-4.506;2023-03-01T17:02:19;10.93;50.92
74811;DHT22;63340;48.404;-4.506;2023-03-01T17:04:45;10.90;51.14
74811;DHT22;63340;48.404;-4.506;2023-03-01T17:07:10;10.93;51.21
74811;DHT22;63340;48.404;-4.506;2023-03-01T17:09:37;10.94;51.39
74811;DHT22;63340;48.404;-4.506;2023-03-01T17:12:05;10.90;51.17
74811;DHT22;63340;48.404;-4.506;2023-03-01T17:14:31;10.92;51.54
74811;DHT22;63340;48.404;-4.506;2023-03-01T17:16:56;10.93;51.60